Time;durP1;ratioP1;P1;durP2;ratioP2;P2;SDS_P1;SDS_P2;PMS_P1;PMS_P2;Temp;Humidity;BMP_temperature;BMP_pressure;BME280_temperature;BME280_humidity;BME280_pressure;Samples;Min_cycle;Max_cycle;Signal;HPM_P1;HPM_P2
2021/09/13 00:01:03;;;;;;;8.23;3.13;;;;;;;16.09;86.41;96418.34;5063274;28;20379;-71
2021/09/13 00:03:30;;;;;;;8.15;3.10;;;;;;;15.84;87.66;96419.97;5063563;28;20203;-71
2021/09/13 00:05:56;;;;;;;4.43;2.90;;;;;;;16.20;85.97;96419.56;5061930;28;20207;-71
2021/09/13 00:08:23;;;;;;;4.80;2.90;;;;;;;16.22;85.38;96413.00;5063219;28;20239;-71
2021/09/13 00:10:50;;;;;;;5.22;3.15;;;;;;;16.10;86.40;96424.47;5062811;28;20472;-71
2021/09/13 00:13:17;;;;;;;4.18;3.25;;;;;;;15.83;87.64;96416.72;5063041;28;20197;-70
2021/09/13 00:15:44;;;;;;;7.10;3.40;;;;;;;16.31;86.83;96417.09;5061705;28;20196;-70
2021/09/13 00:18:11;;;;;;;5.55;3.80;;;;;;;16.11;87.89;96415.47;5062997;28;20223;-70
2021/09/13 00:20:38;;;;;;;6.72;3.92;;;;;;;16.28;87.33;96419.34;5062561;28;20204;-71
2021/09/13 00:23:05;;;;;;;5.05;3.63;;;;;;;16.10;87.41;96419.16;5062813;28;20212;-70
2021/09/13 00:25:31;;;;;;;5.85;3.58;;;;;;;16.16;87.67;96418.34;5062614;28;20227;-70
2021/09/13 00:27:59;;;;;;;4.75;3.40;;;;;;;16.00;87.92;96414.25;5062512;28;20224;-71
2021/09/13 00:30:26;;;;;;;4.00;3.00;;;;;;;15.78;87.57;96416.50;5062752;28;20223;-71
2021/09/13 00:32:52;;;;;;;5.53;2.90;;;;;;;15.90;85.92;96413.84;5062629;28;20207;-70
2021/09/13 00:35:19;;;;;;;4.85;2.92;;;;;;;16.04;84.91;96409.34;5062178;28;20200;-71
2021/09/13 00:37:45;;;;;;;5.05;2.92;;;;;;;16.15;85.24;96412.22;5062315;28;20230;-71
2021/09/13 00:40:13;;;;;;;4.10;2.80;;;;;;;16.27;84.69;96407.91;5062955;28;20207;-70
2021/09/13 00:42:39;;;;;;;4.70;3.13;;;;;;;16.19;84.65;96410.75;5062884;28;20208;-71
2021/09/13 00:45:08;;;;;;;8.07;3.40;;;;;;;16.32;84.32;96408.13;5062622;28;20223;-71
2021/09/13 00:47:35;;;;;;;8.50;3.05;;;;;;;16.07;85.09;96403.63;5062165;28;20724;-71
2021/09/13 00:50:01;;;;;;;5.07;3.10;;;;;;;16.12;84.13;96403.81;5062488;28;20250;-71
2021/09/13 00:52:28;;;;;;;3.90;2.88;;;;;;;16.02;83.91;96398.91;5062977;28;20212;-70
2021/09/13 00:54:54;;;;;;;4.75;3.20;;;;;;;16.14;84.05;96405.25;5063947;28;20215;-70
2021/09/13 00:57:21;;;;;;;4.55;2.92;;;;;;;16.21;84.41;96406.03;5065894;28;20740;-70
2021/09/13 00:59:47;;;;;;;3.78;3.05;;;;;;;15.94;84.75;96404.44;5066376;28;20200;-70
2021/09/13 01:02:15;;;;;;;4.10;2.70;;;;;;;16.11;83.93;96410.97;5066491;28;20200;-70
2021/09/13 01:04:42;;;;;;;3.38;2.80;;;;;;;16.01;84.02;96404.44;5066651;28;20208;-70
2021/09/13 01:07:08;;;;;;;6.90;3.00;;;;;;;16.07;85.79;96409.75;5065641;28;20574;-71
2021/09/13 01:09:35;;;;;;;4.13;3.08;;;;;;;16.23;85.50;96409.31;5066521;28;20328;-70
2021/09/13 01:12:02;;;;;;;4.22;3.28;;;;;;;16.08;86.47;96411.38;5066163;28;20205;-71
2021/09/13 01:14:35;;;;;;;4.82;3.33;;;;;;;16.36;86.01;96398.69;5066125;28;20692;-72
2021/09/13 01:17:01;;;;;;;4.32;3.17;;;;;;;16.06;86.81;96412.59;5065585;28;20220;-72
2021/09/13 01:19:29;;;;;;;4.85;3.33;;;;;;;16.35;86.36;96407.69;5066015;28;20219;-72
2021/09/13 01:21:59;;;;;;;5.80;3.47;;;;;;;16.34;86.60;96408.69;5065940;28;20464;-72
2021/09/13 01:24:27;;;;;;;5.35;3.20;;;;;;;16.13;87.68;96414.25;5066235;28;20232;-72
2021/09/13 01:26:53;;;;;;;4.38;3.15;;;;;;;15.69;88.36;96412.44;5065176;28;20224;-72
2021/09/13 01:29:20;;;;;;;5.50;3.45;;;;;;;15.92;88.17;96410.97;5065414;28;20716;-72
2021/09/13 01:31:46;;;;;;;7.05;3.83;;;;;;;16.08;87.53;96403.41;5066318;28;20325;-72
2021/09/13 01:34:13;;;;;;;7.45;3.63;;;;;;;15.79;90.45;96404.88;5065641;28;20200;-72
2021/09/13 01:36:39;;;;;;;6.47;4.05;;;;;;;15.85;90.65;96400.34;5065448;28;20200;-71
2021/09/13 01:39:06;;;;;;;5.55;3.45;;;;;;;15.90;90.36;96403.22;5065862;28;20193;-72
2021/09/13 01:41:33;;;;;;;5.78;3.65;;;;;;;16.30;89.06;96396.84;5066026;28;20215;-72
2021/09/13 01:44:00;;;;;;;5.07;3.63;;;;;;;16.13;89.38;96403.59;5065691;28;20574;-72
2021/09/13 01:46:27;;;;;;;5.40;3.67;;;;;;;16.36;88.49;96403.19;5065168;28;20200;-71
2021/09/13 01:48:53;;;;;;;8.57;3.85;;;;;;;16.14;89.47;96402.59;5065829;28;20400;-71
2021/09/13 01:51:19;;;;;;;4.97;3.88;;;;;;;16.19;89.52;96405.44;5065988;28;20213;-72
2021/09/13 01:53:47;;;;;;;6.18;4.10;;;;;;;16.33;89.33;96393.78;5066010;28;20197;-72
2021/09/13 01:56:13;;;;;;;5.97;3.80;;;;;;;16.44;88.96;96393.13;5064723;28;20208;-73
2021/09/13 01:58:41;;;;;;;5.70;3.80;;;;;;;16.52;89.16;96382.25;5065439;28;20231;-72
2021/09/13 02:01:08;;;;;;;4.70;3.70;;;;;;;16.50;88.64;96389.66;5065099;28;20213;-71
2021/09/13 02:03:34;;;;;;;8.77;3.65;;;;;;;16.55;88.19;96392.50;5062503;28;20338;-72
2021/09/13 02:06:00;;;;;;;6.38;3.65;;;;;;;16.42;88.61;96389.88;5064227;28;20571;-72
2021/09/13 02:08:27;;;;;;;5.55;3.85;;;;;;;16.34;89.51;96394.59;5065387;28;20727;-71
2021/09/13 02:10:53;;;;;;;5.03;3.60;;;;;;;16.11;90.83;96383.56;5064837;28;20672;-71
2021/09/13 02:13:20;;;;;;;6.38;4.00;;;;;;;16.44;88.97;96390.47;5065470;28;20200;-72
2021/09/13 02:15:48;;;;;;;5.47;3.90;;;;;;;16.55;89.61;96387.97;5065139;28;20207;-72
2021/09/13 02:18:14;;;;;;;7.45;3.50;;;;;;;16.40;88.46;96383.94;5064806;28;20979;-72
2021/09/13 02:20:40;;;;;;;5.18;3.60;;;;;;;16.48;88.03;96382.91;5065272;28;20212;-72
2021/09/13 02:23:07;;;;;;;6.18;3.70;;;;;;;16.50;88.04;96385.13;5065316;28;20216;-72
2021/09/13 02:25:33;;;;;;;5.05;3.35;;;;;;;16.38;88.09;96385.19;5064350;28;20204;-72
2021/09/13 02:28:00;;;;;;;5.82;3.70;;;;;;;16.36;87.86;96377.41;5064858;28;20221;-72
2021/09/13 02:30:26;;;;;;;5.28;3.63;;;;;;;16.39;87.92;96382.31;5064876;28;20232;-72
2021/09/13 02:32:54;;;;;;;5.35;3.80;;;;;;;16.63;87.51;96384.28;5064909;28;20208;-71
2021/09/13 02:35:21;;;;;;;6.40;3.65;;;;;;;16.44;87.49;96385.16;5064291;28;20535;-71
2021/09/13 02:37:47;;;;;;;8.75;3.90;;;;;;;16.45;87.71;96383.31;5065196;28;20224;-72
2021/09/13 02:40:14;;;;;;;8.05;4.22;;;;;;;16.41;87.82;96374.09;5065232;28;20211;-73
2021/09/13 02:42:40;;;;;;;5.32;3.83;;;;;;;16.43;86.60;96372.88;5064895;28;20204;-72
2021/09/13 02:45:08;;;;;;;5.10;3.45;;;;;;;16.42;86.69;96375.75;5064520;28;20196;-72
2021/09/13 02:47:35;;;;;;;9.73;3.53;;;;;;;16.25;86.88;96370.03;5064105;28;20231;-71
2021/09/13 02:50:06;;;;;;;8.05;3.80;;;;;;;16.33;87.54;96377.84;5064365;28;20216;-72
2021/09/13 02:52:33;;;;;;;5.10;3.78;;;;;;;16.21;87.89;96376.00;5064387;28;20208;-72
2021/09/13 02:54:59;;;;;;;5.55;4.25;;;;;;;16.23;88.71;96382.72;5064725;28;20216;-72
2021/09/13 02:57:26;;;;;;;9.82;3.95;;;;;;;15.82;89.86;96388.50;5063623;28;20224;-72
2021/09/13 02:59:52;;;;;;;8.32;4.18;;;;;;;15.92;89.83;96389.72;5064377;28;20196;-72
2021/09/13 03:02:19;;;;;;;5.43;3.75;;;;;;;16.09;88.81;96380.31;5064566;28;20410;-72
2021/09/13 03:04:46;;;;;;;4.10;3.15;;;;;;;15.80;87.83;96393.22;5064260;28;20205;-71
2021/09/13 03:07:14;;;;;;;6.70;3.47;;;;;;;16.08;87.62;96390.13;5063096;28;20388;-71
2021/09/13 03:09:41;;;;;;;8.85;4.07;;;;;;;15.98;88.19;96395.03;5064196;28;20224;-72
2021/09/13 03:12:09;;;;;;;7.40;3.47;;;;;;;15.81;88.75;96386.88;5064304;28;20208;-71
2021/09/13 03:14:35;;;;;;;7.20;4.00;;;;;;;15.73;88.92;96384.41;5063935;28;20851;-72
2021/09/13 03:17:02;;;;;;;6.80;4.10;;;;;;;15.97;88.95;96388.09;5062414;28;20220;-72
2021/09/13 03:19:28;;;;;;;8.50;4.30;;;;;;;15.96;89.18;96378.50;5064171;28;20215;-72
2021/09/13 03:21:55;;;;;;;7.40;4.20;;;;;;;16.04;89.11;96378.25;5064255;28;20211;-71
2021/09/13 03:24:23;;;;;;;7.10;3.97;;;;;;;16.22;87.77;96375.78;5063529;28;20299;-72
2021/09/13 03:26:49;;;;;;;5.43;3.90;;;;;;;16.08;87.12;96374.16;5063560;28;20232;-72
2021/09/13 03:29:16;;;;;;;7.47;4.10;;;;;;;16.02;86.95;96371.50;5063441;28;20224;-71
2021/09/13 03:31:42;;;;;;;9.50;4.40;;;;;;;15.95;87.60;96373.38;5063866;28;20212;-72
2021/09/13 03:34:09;;;;;;;9.43;4.10;;;;;;;15.97;87.47;96380.13;5063109;28;20193;-72
2021/09/13 03:36:38;;;;;;;8.23;3.95;;;;;;;15.60;88.17;96379.91;5063057;28;20703;-72
2021/09/13 03:39:05;;;;;;;5.10;4.05;;;;;;;15.57;89.23;96385.66;5063870;28;20232;-71
2021/09/13 03:41:33;;;;;;;6.18;4.38;;;;;;;15.86;89.90;96380.75;5063566;28;20205;-71
2021/09/13 03:43:59;;;;;;;5.20;3.70;;;;;;;15.76;89.17;96384.84;5063033;28;20207;-72
2021/09/13 03:46:26;;;;;;;5.18;3.13;;;;;;;15.48;88.15;96381.56;5063177;28;20303;-72
2021/09/13 03:48:52;;;;;;;5.85;3.50;;;;;;;15.44;86.94;96380.34;5063113;28;20200;-72
2021/09/13 03:51:19;;;;;;;9.60;4.13;;;;;;;15.59;87.91;96372.16;5063232;28;20231;-72
2021/09/13 03:53:45;;;;;;;8.10;4.30;;;;;;;15.63;87.13;96370.72;5063488;28;20713;-72
2021/09/13 03:56:12;;;;;;;7.10;3.88;;;;;;;15.56;87.19;96376.03;5062618;28;20205;-72
2021/09/13 03:58:40;;;;;;;8.10;3.83;;;;;;;15.65;87.73;96372.16;5062937;28;20716;-71
2021/09/13 04:01:06;;;;;;;5.30;3.70;;;;;;;15.44;86.50;96380.34;5062943;28;20643;-71
2021/09/13 04:03:38;;;;;;;8.48;3.28;;;;;;;15.29;85.77;96376.22;5063264;28;20239;-72
2021/09/13 04:06:05;;;;;;;4.65;3.28;;;;;;;15.34;84.75;96369.28;5062734;28;20627;-72
2021/09/13 04:08:48;;;;;;;6.97;3.58;;;;;;;15.41;85.24;96370.13;5063319;28;20329;-72
2021/09/13 04:11:24;;;;;;;6.78;3.35;;;;;;;15.41;85.21;96380.75;5062990;28;20220;-71
2021/09/13 04:13:51;;;;;;;8.20;3.30;;;;;;;15.38;86.83;96369.72;5062782;28;20207;-71
2021/09/13 04:16:18;;;;;;;11.05;3.88;;;;;;;15.27;86.79;96368.47;5062043;28;20653;-72
2021/09/13 04:18:44;;;;;;;4.95;3.30;;;;;;;15.32;85.93;96362.53;5062972;28;20219;-71
2021/09/13 04:21:11;;;;;;;6.30;3.03;;;;;;;15.31;84.40;96368.88;5062940;28;20197;-72
2021/09/13 04:23:38;;;;;;;5.68;3.95;;;;;;;15.13;87.17;96360.63;5063203;28;20212;-71
2021/09/13 04:26:04;;;;;;;4.95;3.60;;;;;;;15.09;86.99;96370.03;5061835;28;20196;-72
2021/09/13 04:28:31;;;;;;;7.00;3.88;;;;;;;15.11;87.79;96369.81;5062078;28;20225;-72
2021/09/13 04:30:58;;;;;;;6.95;4.10;;;;;;;15.38;87.80;96364.41;5062793;28;20224;-72
2021/09/13 04:33:25;;;;;;;5.60;4.40;;;;;;;15.32;87.24;96365.19;5062628;28;20209;-72
2021/09/13 04:35:51;;;;;;;6.28;4.00;;;;;;;15.40;86.40;96365.00;5061996;28;20687;-72
2021/09/13 04:38:18;;;;;;;5.15;3.65;;;;;;;15.24;85.24;96355.59;5062502;28;20231;-72
2021/09/13 04:40:44;;;;;;;5.63;3.83;;;;;;;15.30;85.38;96364.59;5062831;28;20200;-71
2021/09/13 04:43:11;;;;;;;10.77;4.10;;;;;;;15.33;85.73;96358.88;5062059;28;20222;-74
2021/09/13 04:45:37;;;;;;;5.93;4.15;;;;;;;15.32;85.80;96355.41;5062101;28;20212;-71
2021/09/13 04:48:05;;;;;;;12.80;3.80;;;;;;;15.44;86.08;96356.44;5059619;28;20227;-72
2021/09/13 04:50:32;;;;;;;10.60;4.03;;;;;;;15.38;85.36;96359.09;5062736;28;20220;-72
2021/09/13 04:52:58;;;;;;;8.25;4.03;;;;;;;15.21;86.34;96364.97;5062628;28;20684;-72
2021/09/13 04:55:25;;;;;;;7.00;3.90;;;;;;;14.98;86.36;96367.16;5061801;28;20219;-72
2021/09/13 04:57:51;;;;;;;11.00;4.07;;;;;;;14.83;86.93;96369.16;5062059;28;20885;-74
2021/09/13 05:00:20;;;;;;;6.60;3.85;;;;;;;14.85;87.73;96373.22;5062456;28;20200;-74
2021/09/13 05:02:47;;;;;;;6.65;4.05;;;;;;;14.49;89.76;96376.38;5062786;28;20204;-71
2021/09/13 05:05:15;;;;;;;7.60;4.82;;;;;;;14.91;88.97;96380.41;5061696;28;20207;-74
2021/09/13 05:07:41;;;;;;;11.50;4.00;;;;;;;14.88;88.49;96379.97;5062646;28;20224;-73
2021/09/13 05:10:09;;;;;;;7.90;4.05;;;;;;;14.80;88.19;96385.47;5062384;28;20192;-74
2021/09/13 05:12:35;;;;;;;7.05;4.60;;;;;;;14.99;88.47;96384.72;5062627;28;20497;-74
2021/09/13 05:15:02;;;;;;;7.32;4.22;;;;;;;15.00;88.28;96381.84;5062329;28;20200;-74
2021/09/13 05:17:28;;;;;;;9.07;4.57;;;;;;;15.21;87.49;96386.22;5061568;28;20224;-72
2021/09/13 05:19:56;;;;;;;7.43;4.95;;;;;;;15.34;88.20;96387.06;5062451;28;20227;-74
2021/09/13 05:22:24;;;;;;;9.32;4.68;;;;;;;15.42;88.69;96381.56;5062611;28;20208;-71
2021/09/13 05:24:50;;;;;;;8.27;4.68;;;;;;;15.29;88.92;96378.88;5061908;28;20215;-72
2021/09/13 05:27:17;;;;;;;7.05;4.57;;;;;;;15.29;88.71;96374.38;5061323;28;20231;-72
2021/09/13 05:29:43;;;;;;;10.10;4.55;;;;;;;15.20;89.20;96379.22;5062772;28;20205;-74
2021/09/13 05:32:09;;;;;;;10.55;4.65;;;;;;;15.01;90.15;96372.88;5062085;28;20205;-72
2021/09/13 05:34:36;;;;;;;7.80;4.22;;;;;;;15.34;88.93;96376.44;5062303;28;20212;-73
2021/09/13 05:37:03;;;;;;;9.38;4.15;;;;;;;15.34;89.81;96374.59;5061609;28;20220;-74
2021/09/13 05:39:30;;;;;;;10.68;4.43;;;;;;;15.54;89.79;96379.91;5062325;28;20224;-72
2021/09/13 05:41:57;;;;;;;8.15;4.63;;;;;;;15.51;90.76;96380.34;5064991;28;20209;-72
2021/09/13 05:44:24;;;;;;;12.20;4.93;;;;;;;15.53;91.38;96378.28;5065531;28;20611;-72
2021/09/13 05:46:51;;;;;;;7.28;4.72;;;;;;;15.58;91.81;96381.13;5062365;28;20220;-72
2021/09/13 05:49:18;;;;;;;8.38;4.47;;;;;;;15.63;90.87;96379.53;5065386;28;20622;-72
2021/09/13 05:51:46;;;;;;;9.40;5.00;;;;;;;15.82;90.08;96380.53;5065987;28;20666;-72
2021/09/13 05:54:13;;;;;;;9.77;5.05;;;;;;;16.19;89.24;96391.31;5065837;28;20203;-72
2021/09/13 05:56:44;;;;;;;12.95;4.88;;;;;;;16.24;89.58;96388.84;5064690;28;20204;-73
2021/09/13 05:59:11;;;;;;;9.50;5.40;;;;;;;16.05;90.64;96390.53;5065156;28;20471;-72
2021/09/13 06:01:37;;;;;;;9.18;4.90;;;;;;;16.25;89.98;96390.50;5066101;28;20224;-71
2021/09/13 06:04:04;;;;;;;15.45;6.93;;;;;;;16.34;89.57;96390.09;5065314;28;20196;-72
2021/09/13 06:06:30;;;;;;;12.75;5.22;;;;;;;16.46;89.21;96383.13;5065044;28;20543;-72
2021/09/13 06:08:57;;;;;;;10.30;4.85;;;;;;;16.47;88.85;96383.91;5064845;28;20234;-72
2021/09/13 06:11:27;;;;;;;8.35;4.60;;;;;;;16.19;90.90;96375.38;5065482;28;20200;-72
2021/09/13 06:13:54;;;;;;;8.85;5.13;;;;;;;16.55;90.33;96384.53;5065264;28;20205;-71
2021/09/13 06:16:21;;;;;;;8.48;5.22;;;;;;;16.58;89.23;96376.09;5064594;28;20696;-71
2021/09/13 06:18:48;;;;;;;8.98;4.45;;;;;;;16.68;88.68;96382.59;5065116;28;20582;-71
2021/09/13 06:21:14;;;;;;;8.10;4.82;;;;;;;16.67;88.51;96377.50;5065013;28;20224;-71
2021/09/13 06:23:41;;;;;;;8.70;5.40;;;;;;;16.70;88.43;96385.06;5065361;28;20209;-71
2021/09/13 06:26:07;;;;;;;12.10;6.00;;;;;;;16.59;88.68;96389.19;5064687;28;20577;-71
2021/09/13 06:28:34;;;;;;;13.63;5.70;;;;;;;16.57;88.53;96393.94;5065247;28;20221;-71
2021/09/13 06:31:01;;;;;;;8.90;5.60;;;;;;;16.78;88.99;96403.47;5064751;28;20581;-71
2021/09/13 06:33:29;;;;;;;13.02;5.80;;;;;;;16.72;88.77;96396.31;5064837;28;20208;-71
2021/09/13 06:35:56;;;;;;;10.85;5.57;;;;;;;16.72;89.49;96401.63;5064781;28;20292;-71
2021/09/13 06:38:22;;;;;;;9.27;5.60;;;;;;;16.85;89.09;96399.75;5064578;28;20220;-71
2021/09/13 06:40:49;;;;;;;9.82;5.90;;;;;;;16.85;88.98;96399.75;5064980;28;20220;-71
2021/09/13 06:43:16;;;;;;;14.98;6.07;;;;;;;16.96;88.31;96395.59;5064472;28;20200;-71
2021/09/13 06:45:44;;;;;;;14.25;6.30;;;;;;;16.91;88.28;96396.22;5064329;28;20208;-71
2021/09/13 06:48:15;;;;;;;11.70;5.90;;;;;;;17.15;88.04;96403.50;5061391;28;20363;-71
2021/09/13 06:50:44;;;;;;;12.02;5.97;;;;;;;17.11;88.34;96404.94;5064946;28;20254;-71
2021/09/13 06:53:11;;;;;;;14.23;5.80;;;;;;;17.16;88.01;96405.94;5063734;28;20193;-71
2021/09/13 06:55:38;;;;;;;10.50;6.25;;;;;;;17.21;89.24;96411.44;5063855;28;20227;-71
2021/09/13 06:58:06;;;;;;;16.17;6.18;;;;;;;17.33;88.56;96407.09;5064118;28;20216;-71
2021/09/13 07:00:34;;;;;;;8.68;6.10;;;;;;;17.26;89.34;96409.00;5063886;28;20371;-73
2021/09/13 07:03:01;;;;;;;10.73;6.82;;;;;;;17.14;90.28;96415.16;5064648;28;20292;-71
2021/09/13 07:05:29;;;;;;;10.48;6.18;;;;;;;17.42;89.59;96419.13;5063660;28;20206;-72
2021/09/13 07:07:55;;;;;;;10.18;6.70;;;;;;;17.31;90.05;96409.16;5064054;28;20410;-71
2021/09/13 07:10:22;;;;;;;11.98;6.40;;;;;;;17.66;88.63;96421.03;5064295;28;20208;-71
2021/09/13 07:12:50;;;;;;;9.35;5.93;;;;;;;17.97;87.96;96421.81;5063773;28;20204;-71
2021/09/13 07:15:16;;;;;;;9.40;5.78;;;;;;;18.00;86.96;96421.38;5063695;28;20197;-71
2021/09/13 07:17:43;;;;;;;9.52;6.53;;;;;;;18.07;86.74;96418.66;5064076;28;20223;-71
2021/09/13 07:20:12;;;;;;;13.32;6.47;;;;;;;18.05;87.60;96410.88;5064303;28;20203;-71
2021/09/13 07:22:40;;;;;;;10.00;6.30;;;;;;;18.09;88.25;96411.25;5064185;28;20204;-71
2021/09/13 07:25:07;;;;;;;12.50;6.50;;;;;;;18.34;86.93;96408.38;5063795;28;20197;-71
2021/09/13 07:27:35;;;;;;;11.65;6.78;;;;;;;18.39;85.71;96408.53;5062921;28;20580;-71
2021/09/13 07:30:02;;;;;;;12.98;6.65;;;;;;;18.58;85.21;96420.00;5063935;28;20282;-71
2021/09/13 07:32:29;;;;;;;11.55;6.55;;;;;;;18.84;84.35;96423.22;5063728;28;20208;-72
2021/09/13 07:34:56;;;;;;;11.40;6.25;;;;;;;18.78;86.03;96429.44;5064246;28;20203;-71
2021/09/13 07:37:22;;;;;;;12.38;7.05;;;;;;;18.61;87.52;96433.75;5062800;28;20224;-71
2021/09/13 07:39:50;;;;;;;11.52;7.13;;;;;;;19.09;85.20;96423.97;5063902;28;20279;-71
2021/09/13 07:42:17;;;;;;;9.77;6.50;;;;;;;18.97;84.87;96429.19;5063367;28;20228;-71
2021/09/13 07:44:43;;;;;;;10.77;6.88;;;;;;;19.14;84.57;96422.25;5063898;28;20208;-71
2021/09/13 07:47:10;;;;;;;14.18;7.18;;;;;;;19.13;85.53;96433.16;5059700;28;20220;-71
2021/09/13 07:49:37;;;;;;;15.60;7.63;;;;;;;19.12;86.02;96429.66;5063418;28;20881;-71
2021/09/13 07:52:03;;;;;;;13.18;8.23;;;;;;;19.13;85.62;96425.97;5063744;28;20204;-72
2021/09/13 07:54:30;;;;;;;12.70;7.57;;;;;;;19.51;84.49;96431.00;5063028;28;20227;-71
2021/09/13 07:56:58;;;;;;;12.57;7.78;;;;;;;19.66;85.16;96427.66;5062221;28;20220;-71
2021/09/13 07:59:24;;;;;;;13.38;7.97;;;;;;;19.68;84.98;96425.59;5063636;28;20211;-71
2021/09/13 08:01:51;;;;;;;12.10;7.35;;;;;;;19.97;85.79;96435.47;5063390;28;20263;-70
2021/09/13 08:04:17;;;;;;;12.88;8.15;;;;;;;20.14;83.46;96435.59;5062867;28;20197;-71
2021/09/13 08:06:44;;;;;;;15.52;8.82;;;;;;;20.26;82.71;96442.59;5063143;28;20228;-71
2021/09/13 08:09:10;;;;;;;12.93;8.15;;;;;;;20.53;82.68;96438.41;5063080;28;20200;-71
2021/09/13 08:11:37;;;;;;;12.75;8.85;;;;;;;20.14;82.98;96448.97;5063469;28;20204;-71
2021/09/13 08:14:04;;;;;;;16.75;8.93;;;;;;;20.36;83.48;96445.50;5062957;28;20203;-71
2021/09/13 08:16:31;;;;;;;15.20;8.80;;;;;;;20.35;83.60;96446.56;5062285;28;20677;-71
2021/09/13 08:18:58;;;;;;;14.30;8.68;;;;;;;20.51;83.10;96452.03;5063090;28;20201;-71
2021/09/13 08:21:26;;;;;;;13.48;9.02;;;;;;;20.68;82.57;96457.50;5063255;28;20778;-71
2021/09/13 08:23:53;;;;;;;13.98;8.02;;;;;;;20.81;78.58;96454.63;5062460;28;20195;-71
2021/09/13 08:26:19;;;;;;;11.55;7.95;;;;;;;21.03;79.75;96449.22;5062090;28;20212;-71
2021/09/13 08:28:46;;;;;;;13.18;8.70;;;;;;;21.24;80.86;96455.81;5062645;28;20227;-71
2021/09/13 08:31:14;;;;;;;11.52;7.88;;;;;;;21.77;80.43;96449.13;5063129;28;20207;-72
2021/09/13 08:33:40;;;;;;;10.68;7.68;;;;;;;21.37;78.29;96450.97;5062707;28;20204;-72
2021/09/13 08:36:08;;;;;;;15.00;8.60;;;;;;;21.42;78.12;96455.63;5062144;28;20223;-72
2021/09/13 08:38:35;;;;;;;11.77;7.53;;;;;;;21.57;79.92;96457.56;5062875;28;20248;-72
2021/09/13 08:41:02;;;;;;;11.27;7.88;;;;;;;21.90;78.06;96449.63;5062977;28;20224;-72
2021/09/13 08:43:28;;;;;;;12.75;8.05;;;;;;;21.77;76.89;96449.13;5063006;28;20211;-72
2021/09/13 08:45:57;;;;;;;10.65;7.63;;;;;;;21.99;76.51;96463.47;5061803;28;20204;-72
2021/09/13 08:48:28;;;;;;;10.35;7.03;;;;;;;22.32;75.38;96457.09;5060335;28;20234;-72
2021/09/13 08:51:06;;;;;;;12.07;7.22;;;;;;;22.03;75.71;96456.56;5062934;28;20205;-72
2021/09/13 08:53:36;;;;;;;12.65;6.88;;;;;;;22.30;76.34;96461.91;5063120;28;20234;-72
2021/09/13 08:56:04;;;;;;;9.30;7.10;;;;;;;22.40;76.96;96462.06;5061491;28;20208;-72
2021/09/13 08:58:34;;;;;;;12.05;7.78;;;;;;;22.71;76.00;96469.53;5062098;28;20777;-72
2021/09/13 09:01:01;;;;;;;13.23;8.15;;;;;;;22.61;77.04;96464.00;5062768;28;20240;-72
2021/09/13 09:03:29;;;;;;;11.75;7.45;;;;;;;22.64;74.10;96463.50;5062290;28;20236;-72
2021/09/13 09:05:56;;;;;;;11.30;7.47;;;;;;;22.66;75.28;96460.56;5061542;28;20205;-72
2021/09/13 09:08:27;;;;;;;13.68;7.40;;;;;;;23.06;75.29;96462.00;5062660;28;20315;-72
2021/09/13 09:10:55;;;;;;;12.77;7.25;;;;;;;22.93;73.46;96451.56;5062665;28;20200;-72
2021/09/13 09:13:22;;;;;;;10.70;6.95;;;;;;;22.96;74.00;96448.38;5062128;28;20642;-72
2021/09/13 09:15:56;;;;;;;11.15;6.65;;;;;;;23.40;74.91;96448.97;5063152;28;20203;-72
2021/09/13 09:18:24;;;;;;;11.77;6.43;;;;;;;23.43;71.86;96443.13;5065860;28;20237;-72
2021/09/13 09:20:52;;;;;;;8.15;5.85;;;;;;;23.61;69.64;96450.03;5066049;28;20205;-72
2021/09/13 09:23:19;;;;;;;8.13;5.15;;;;;;;23.46;68.82;96448.00;5066366;28;20203;-72
2021/09/13 09:25:47;;;;;;;9.20;5.70;;;;;;;23.54;70.67;96444.03;5065465;28;20476;-72
2021/09/13 09:28:16;;;;;;;9.98;5.50;;;;;;;23.66;68.63;96442.84;5065930;28;20216;-72
2021/09/13 09:30:44;;;;;;;9.20;6.03;;;;;;;23.81;70.80;96447.59;5066401;28;20617;-72
2021/09/13 09:33:12;;;;;;;10.00;5.82;;;;;;;23.91;69.41;96445.00;5066010;28;20295;-72
2021/09/13 09:35:47;;;;;;;9.73;5.78;;;;;;;24.20;68.90;96444.47;5065756;28;20334;-72
2021/09/13 09:38:29;;;;;;;7.97;5.72;;;;;;;24.44;68.58;96443.06;5065827;28;20337;-72
2021/09/13 09:41:00;;;;;;;7.95;5.65;;;;;;;23.86;71.90;96442.25;5065474;28;20290;-72
2021/09/13 09:43:27;;;;;;;8.50;5.85;;;;;;;24.16;69.75;96440.66;5065602;28;20602;-72
2021/09/13 09:45:54;;;;;;;10.02;6.38;;;;;;;23.84;65.98;96434.44;5065150;28;20193;-72
2021/09/13 09:48:29;;;;;;;8.02;6.07;;;;;;;24.29;68.06;96442.94;5063169;28;20343;-72
2021/09/13 09:50:55;;;;;;;9.88;5.90;;;;;;;24.22;67.80;96448.53;5065785;28;20273;-72
2021/09/13 09:53:22;;;;;;;11.65;6.18;;;;;;;24.10;69.57;96434.41;5065761;28;20205;-72
2021/09/13 09:55:52;;;;;;;8.85;5.90;;;;;;;24.21;68.85;96441.53;5065094;28;20209;-72
2021/09/13 09:58:19;;;;;;;8.43;5.70;;;;;;;24.32;68.24;96439.72;5065296;28;20790;-72
2021/09/13 10:00:47;;;;;;;8.02;5.57;;;;;;;24.29;69.32;96437.56;5065704;28;20562;-72
2021/09/13 10:03:29;;;;;;;10.80;6.32;;;;;;;24.41;66.79;96438.22;5065510;28;20216;-72
2021/09/13 10:05:56;;;;;;;8.32;6.22;;;;;;;24.46;66.06;96439.06;5064703;28;20484;-73
2021/09/13 10:08:23;;;;;;;7.93;5.97;;;;;;;24.13;66.49;96433.09;5065262;28;20225;-72
2021/09/13 10:10:51;;;;;;;8.15;5.63;;;;;;;24.63;68.49;96424.38;5065587;28;20580;-72
2021/09/13 10:13:22;;;;;;;8.63;5.82;;;;;;;24.80;67.21;96427.72;5064871;28;20355;-72
2021/09/13 10:15:50;;;;;;;7.85;5.50;;;;;;;24.73;65.14;96420.91;5064552;28;20201;-72
2021/09/13 10:18:16;;;;;;;7.70;5.18;;;;;;;24.89;68.05;96422.66;5065075;28;20220;-72
2021/09/13 10:20:43;;;;;;;13.30;6.90;;;;;;;24.41;68.62;96422.84;5065371;28;20208;-72
2021/09/13 10:23:10;;;;;;;8.85;5.35;;;;;;;24.89;67.85;96418.06;5065106;28;20247;-72
2021/09/13 10:25:36;;;;;;;8.07;5.57;;;;;;;25.12;68.86;96417.66;5064698;28;20208;-72
2021/09/13 10:28:06;;;;;;;12.90;6.03;;;;;;;25.40;64.69;96418.03;5064546;28;20723;-72
2021/09/13 10:30:49;;;;;;;8.98;6.55;;;;;;;25.72;63.64;96417.91;5065136;28;20216;-72
2021/09/13 10:33:16;;;;;;;10.27;5.50;;;;;;;25.46;65.64;96417.00;5064702;28;20197;-72
2021/09/13 10:35:54;;;;;;;7.68;5.40;;;;;;;25.86;65.90;96404.47;5064534;28;20677;-72
2021/09/13 10:38:40;;;;;;;10.18;5.75;;;;;;;25.61;63.44;96416.22;5064973;28;20232;-71
2021/09/13 10:41:07;;;;;;;8.48;6.10;;;;;;;25.58;64.98;96408.66;5064491;28;20192;-72
2021/09/13 10:43:35;;;;;;;8.93;5.45;;;;;;;25.79;63.61;96415.75;5064528;28;20204;-72
2021/09/13 10:46:01;;;;;;;8.50;5.35;;;;;;;25.80;63.71;96414.69;5064337;28;20197;-72
2021/09/13 10:48:27;;;;;;;10.85;5.90;;;;;;;25.71;64.91;96406.28;5062171;28;20224;-72
2021/09/13 10:50:55;;;;;;;9.57;5.18;;;;;;;25.86;63.57;96403.63;5064376;28;20204;-72
2021/09/13 10:53:34;;;;;;;8.40;5.55;;;;;;;26.60;61.01;96400.16;5064559;28;20207;-72
2021/09/13 10:56:04;;;;;;;7.38;5.25;;;;;;;26.60;61.25;96402.84;5063466;28;20208;-72
2021/09/13 10:58:44;;;;;;;8.73;5.65;;;;;;;26.82;60.32;96400.66;5064715;28;20225;-72
2021/09/13 11:01:25;;;;;;;6.82;5.22;;;;;;;26.16;62.55;96403.66;5064393;28;20648;-72
2021/09/13 11:03:57;;;;;;;8.13;5.80;;;;;;;25.97;62.64;96397.97;5064051;28;20197;-72
2021/09/13 11:06:36;;;;;;;7.82;5.28;;;;;;;25.92;63.30;96391.75;5063793;28;20208;-72
2021/09/13 11:09:05;;;;;;;8.25;5.18;;;;;;;25.74;63.73;96388.75;5063952;28;20526;-72
2021/09/13 11:11:34;;;;;;;7.40;5.68;;;;;;;25.61;63.81;96381.13;5064371;28;20211;-72
2021/09/13 11:14:04;;;;;;;9.43;4.80;;;;;;;25.72;63.80;96391.72;5064103;28;20201;-72
2021/09/13 11:16:34;;;;;;;5.70;4.57;;;;;;;25.53;66.29;96381.66;5063502;28;20212;-72
2021/09/13 11:19:02;;;;;;;10.23;5.10;;;;;;;25.62;63.82;96388.16;5063986;28;20203;-72
2021/09/13 11:21:31;;;;;;;7.43;4.40;;;;;;;25.88;63.65;96385.28;5064090;28;20578;-72
2021/09/13 11:24:01;;;;;;;6.70;4.32;;;;;;;26.16;63.87;96372.06;5064053;28;20212;-72
2021/09/13 11:26:33;;;;;;;5.57;4.53;;;;;;;26.72;61.96;96381.75;5062965;28;20228;-72
2021/09/13 11:29:03;;;;;;;7.65;5.07;;;;;;;26.93;59.26;96378.72;5063380;28;20668;-72
2021/09/13 11:31:36;;;;;;;6.82;4.60;;;;;;;27.56;58.19;96370.66;5063988;28;20204;-72
2021/09/13 11:34:05;;;;;;;7.78;5.15;;;;;;;27.08;60.70;96376.78;5064008;28;20695;-72